sensor_id;sensor_type;location;lat;lon;timestamp;P1;durP1;ratioP1;P2;durP2;ratioP2
22040;SDS011;11184;52.444;13.578;2023-02-28T00:02:40;7.10;;;5.50;;
22040;SDS011;11184;52.444;13.578;2023-02-28T00:05:26;5.22;;;4.72;;
22040;SDS011;11184;52.444;13.578;2023-02-28T00:08:10;6.00;;;5.20;;
22040;SDS011;11184;52.444;13.578;2023-02-28T00:11:00;8.02;;;5.32;;
22040;SDS011;11184;52.444;13.578;2023-02-28T00:13:46;8.85;;;6.15;;
22040;SDS011;11184;52.444;13.578;2023-02-28T00:16:31;9.25;;;5.50;;
22040;SDS011;11184;52.444;13.578;2023-02-28T00:19:15;10.27;;;5.57;;
22040;SDS011;11184;52.444;13.578;2023-02-28T00:22:00;7.80;;;5.60;;
22040;SDS011;11184;52.444;13.578;2023-02-28T00:24:45;8.90;;;5.47;;
22040;SDS011;11184;52.444;13.578;2023-02-28T00:27:29;6.80;;;6.10;;
22040;SDS011;11184;52.444;13.578;2023-02-28T00:30:16;8.57;;;6.90;;
22040;SDS011;11184;52.444;13.578;2023-02-28T00:33:01;7.15;;;6.43;;
22040;SDS011;11184;52.444;13.578;2023-02-28T00:35:45;10.95;;;6.13;;
22040;SDS011;11184;52.444;13.578;2023-02-28T00:38:30;11.27;;;6.20;;
22040;SDS011;11184;52.444;13.578;2023-02-28T00:41:15;7.80;;;5.93;;
22040;SDS011;11184;52.444;13.578;2023-02-28T00:44:00;8.25;;;5.88;;
22040;SDS011;11184;52.444;13.578;2023-02-28T00:46:44;8.23;;;6.55;;
22040;SDS011;11184;52.444;13.578;2023-02-28T00:49:29;8.35;;;6.75;;
22040;SDS011;11184;52.444;13.578;2023-02-28T00:52:13;6.18;;;5.68;;
22040;SDS011;11184;52.444;13.578;2023-02-28T00:54:58;8.40;;;7.50;;
22040;SDS011;11184;52.444;13.578;2023-02-28T00:57:42;7.60;;;5.60;;
22040;SDS011;11184;52.444;13.578;2023-02-28T01:00:27;8.50;;;6.53;;
22040;SDS011;11184;52.444;13.578;2023-02-28T01:03:11;6.93;;;6.32;;
22040;SDS011;11184;52.444;13.578;2023-02-28T01:05:56;7.78;;;6.60;;
22040;SDS011;11184;52.444;13.578;2023-02-28T01:08:41;8.50;;;6.53;;
22040;SDS011;11184;52.444;13.578;2023-02-28T01:11:25;12.35;;;5.70;;
22040;SDS011;11184;52.444;13.578;2023-02-28T01:14:14;6.13;;;4.68;;
22040;SDS011;11184;52.444;13.578;2023-02-28T01:17:00;6.45;;;5.85;;
22040;SDS011;11184;52.444;13.578;2023-02-28T01:19:44;8.18;;;5.97;;
22040;SDS011;11184;52.444;13.578;2023-02-28T01:22:29;10.15;;;5.40;;
22040;SDS011;11184;52.444;13.578;2023-02-28T01:25:13;9.45;;;5.38;;
22040;SDS011;11184;52.444;13.578;2023-02-28T01:27:58;10.70;;;5.82;;
22040;SDS011;11184;52.444;13.578;2023-02-28T01:30:46;7.65;;;6.82;;
22040;SDS011;11184;52.444;13.578;2023-02-28T01:33:31;6.20;;;5.28;;
22040;SDS011;11184;52.444;13.578;2023-02-28T01:36:18;6.72;;;5.88;;
22040;SDS011;11184;52.444;13.578;2023-02-28T01:39:03;6.95;;;6.05;;
22040;SDS011;11184;52.444;13.578;2023-02-28T01:41:47;8.48;;;7.07;;
22040;SDS011;11184;52.444;13.578;2023-02-28T01:47:37;8.23;;;5.80;;
22040;SDS011;11184;52.444;13.578;2023-02-28T01:50:23;7.57;;;6.32;;
22040;SDS011;11184;52.444;13.578;2023-02-28T01:53:11;6.78;;;6.15;;
22040;SDS011;11184;52.444;13.578;2023-02-28T01:55:56;5.88;;;5.38;;
22040;SDS011;11184;52.444;13.578;2023-02-28T01:58:41;6.65;;;6.05;;
22040;SDS011;11184;52.444;13.578;2023-02-28T02:01:26;6.50;;;5.53;;
22040;SDS011;11184;52.444;13.578;2023-02-28T02:04:11;8.23;;;6.25;;
22040;SDS011;11184;52.444;13.578;2023-02-28T02:06:56;7.18;;;6.13;;
22040;SDS011;11184;52.444;13.578;2023-02-28T02:09:42;6.25;;;5.65;;
22040;SDS011;11184;52.444;13.578;2023-02-28T02:12:30;7.60;;;6.18;;
22040;SDS011;11184;52.444;13.578;2023-02-28T02:15:23;7.40;;;5.00;;
22040;SDS011;11184;52.444;13.578;2023-02-28T02:18:12;6.53;;;4.95;;
22040;SDS011;11184;52.444;13.578;2023-02-28T02:21:09;7.13;;;5.40;;
22040;SDS011;11184;52.444;13.578;2023-02-28T02:26:50;6.45;;;5.82;;
22040;SDS011;11184;52.444;13.578;2023-02-28T02:35:25;6.93;;;6.03;;
22040;SDS011;11184;52.444;13.578;2023-02-28T02:38:20;7.07;;;5.25;;
22040;SDS011;11184;52.444;13.578;2023-02-28T02:41:13;5.90;;;5.40;;
22040;SDS011;11184;52.444;13.578;2023-02-28T02:44:12;9.30;;;6.63;;
22040;SDS011;11184;52.444;13.578;2023-02-28T02:47:02;6.82;;;5.75;;
22040;SDS011;11184;52.444;13.578;2023-02-28T02:49:49;7.25;;;6.10;;
22040;SDS011;11184;52.444;13.578;2023-02-28T02:52:40;10.45;;;7.07;;
22040;SDS011;11184;52.444;13.578;2023-02-28T02:55:26;8.50;;;5.32;;
22040;SDS011;11184;52.444;13.578;2023-02-28T02:58:16;7.25;;;6.45;;
22040;SDS011;11184;52.444;13.578;2023-02-28T03:01:01;10.40;;;6.60;;
22040;SDS011;11184;52.444;13.578;2023-02-28T03:03:48;9.02;;;6.38;;
22040;SDS011;11184;52.444;13.578;2023-02-28T03:06:33;8.32;;;6.93;;
22040;SDS011;11184;52.444;13.578;2023-02-28T03:09:18;8.57;;;6.47;;
22040;SDS011;11184;52.444;13.578;2023-02-28T03:12:03;8.73;;;7.55;;
22040;SDS011;11184;52.444;13.578;2023-02-28T03:14:55;7.95;;;6.97;;
22040;SDS011;11184;52.444;13.578;2023-02-28T03:17:49;7.28;;;6.60;;
22040;SDS011;11184;52.444;13.578;2023-02-28T03:20:40;8.80;;;6.97;;
22040;SDS011;11184;52.444;13.578;2023-02-28T03:23:42;9.48;;;7.00;;
22040;SDS011;11184;52.444;13.578;2023-02-28T03:26:29;9.77;;;6.95;;
22040;SDS011;11184;52.444;13.578;2023-02-28T03:29:16;12.80;;;6.90;;
22040;SDS011;11184;52.444;13.578;2023-02-28T03:32:23;12.48;;;7.32;;
22040;SDS011;11184;52.444;13.578;2023-02-28T03:35:14;8.93;;;7.03;;
22040;SDS011;11184;52.444;13.578;2023-02-28T03:38:17;9.82;;;6.95;;
22040;SDS011;11184;52.444;13.578;2023-02-28T03:41:09;8.95;;;6.93;;
22040;SDS011;11184;52.444;13.578;2023-02-28T03:44:03;11.10;;;5.85;;
22040;SDS011;11184;52.444;13.578;2023-02-28T03:46:52;7.78;;;7.10;;
22040;SDS011;11184;52.444;13.578;2023-02-28T03:49:40;9.23;;;7.78;;
22040;SDS011;11184;52.444;13.578;2023-02-28T03:52:28;8.68;;;7.95;;
22040;SDS011;11184;52.444;13.578;2023-02-28T03:55:16;7.60;;;6.53;;
22040;SDS011;11184;52.444;13.578;2023-02-28T04:00:50;8.98;;;7.20;;
22040;SDS011;11184;52.444;13.578;2023-02-28T04:03:36;8.75;;;7.22;;
22040;SDS011;11184;52.444;13.578;2023-02-28T04:06:22;11.48;;;7.45;;
22040;SDS011;11184;52.444;13.578;2023-02-28T04:09:08;11.23;;;7.60;;
22040;SDS011;11184;52.444;13.578;2023-02-28T04:11:53;7.55;;;6.93;;
22040;SDS011;11184;52.444;13.578;2023-02-28T04:14:39;7.85;;;6.95;;
22040;SDS011;11184;52.444;13.578;2023-02-28T04:17:24;11.50;;;8.18;;
22040;SDS011;11184;52.444;13.578;2023-02-28T04:20:08;9.25;;;8.18;;
22040;SDS011;11184;52.444;13.578;2023-02-28T04:22:53;10.02;;;9.02;;
22040;SDS011;11184;52.444;13.578;2023-02-28T04:25:38;9.65;;;7.47;;
22040;SDS011;11184;52.444;13.578;2023-02-28T04:28:24;8.00;;;7.18;;
22040;SDS011;11184;52.444;13.578;2023-02-28T04:31:08;11.07;;;8.07;;
22040;SDS011;11184;52.444;13.578;2023-02-28T04:33:54;11.52;;;8.38;;
22040;SDS011;11184;52.444;13.578;2023-02-28T04:36:39;9.50;;;8.63;;
22040;SDS011;11184;52.444;13.578;2023-02-28T04:39:24;10.65;;;8.95;;
22040;SDS011;11184;52.444;13.578;2023-02-28T04:42:09;10.00;;;8.95;;
22040;SDS011;11184;52.444;13.578;2023-02-28T04:44:54;12.05;;;9.27;;
22040;SDS011;11184;52.444;13.578;2023-02-28T04:47:38;12.20;;;8.50;;
22040;SDS011;11184;52.444;13.578;2023-02-28T04:50:23;8.77;;;7.72;;
22040;SDS011;11184;52.444;13.578;2023-02-28T04:53:07;9.68;;;8.73;;
22040;SDS011;11184;52.444;13.578;2023-02-28T04:55:52;12.23;;;8.30;;
22040;SDS011;11184;52.444;13.578;2023-02-28T04:58:37;13.20;;;9.43;;
22040;SDS011;11184;52.444;13.578;2023-02-28T05:01:25;12.43;;;9.70;;
22040;SDS011;11184;52.444;13.578;2023-02-28T05:04:10;10.52;;;8.98;;
22040;SDS011;11184;52.444;13.578;2023-02-28T05:06:55;13.48;;;10.30;;
22040;SDS011;11184;52.444;13.578;2023-02-28T05:09:39;11.30;;;10.18;;
22040;SDS011;11184;52.444;13.578;2023-02-28T05:12:24;12.43;;;11.23;;
22040;SDS011;11184;52.444;13.578;2023-02-28T05:15:11;14.30;;;12.85;;
22040;SDS011;11184;52.444;13.578;2023-02-28T05:17:57;14.98;;;11.50;;
22040;SDS011;11184;52.444;13.578;2023-02-28T05:20:41;16.80;;;14.60;;
22040;SDS011;11184;52.444;13.578;2023-02-28T05:23:26;15.15;;;10.20;;
22040;SDS011;11184;52.444;13.578;2023-02-28T05:26:11;11.32;;;10.13;;
22040;SDS011;11184;52.444;13.578;2023-02-28T05:28:56;10.05;;;9.05;;
22040;SDS011;11184;52.444;13.578;2023-02-28T05:31:41;13.50;;;11.65;;
22040;SDS011;11184;52.444;13.578;2023-02-28T05:34:25;12.00;;;9.98;;
22040;SDS011;11184;52.444;13.578;2023-02-28T05:37:14;13.43;;;11.13;;
22040;SDS011;11184;52.444;13.578;2023-02-28T05:39:59;17.80;;;10.82;;
22040;SDS011;11184;52.444;13.578;2023-02-28T05:42:43;11.38;;;10.35;;
22040;SDS011;11184;52.444;13.578;2023-02-28T05:45:28;12.65;;;8.90;;
22040;SDS011;11184;52.444;13.578;2023-02-28T05:48:13;11.40;;;9.75;;
22040;SDS011;11184;52.444;13.578;2023-02-28T05:50:57;15.85;;;11.90;;
22040;SDS011;11184;52.444;13.578;2023-02-28T05:53:42;14.25;;;10.85;;
22040;SDS011;11184;52.444;13.578;2023-02-28T05:56:27;12.00;;;10.80;;
22040;SDS011;11184;52.444;13.578;2023-02-28T05:59:12;13.45;;;11.02;;
22040;SDS011;11184;52.444;13.578;2023-02-28T06:01:57;11.88;;;9.07;;
22040;SDS011;11184;52.444;13.578;2023-02-28T06:04:41;12.43;;;10.20;;
22040;SDS011;11184;52.444;13.578;2023-02-28T06:07:26;10.57;;;9.27;;
22040;SDS011;11184;52.444;13.578;2023-02-28T06:10:11;12.48;;;10.77;;
22040;SDS011;11184;52.444;13.578;2023-02-28T06:12:59;15.90;;;11.43;;
22040;SDS011;11184;52.444;13.578;2023-02-28T06:15:44;13.45;;;11.88;;
22040;SDS011;11184;52.444;13.578;2023-02-28T06:18:28;15.77;;;12.48;;
22040;SDS011;11184;52.444;13.578;2023-02-28T06:21:13;12.18;;;10.40;;
22040;SDS011;11184;52.444;13.578;2023-02-28T06:23:58;14.90;;;11.35;;
22040;SDS011;11184;52.444;13.578;2023-02-28T06:26:42;14.68;;;11.20;;
22040;SDS011;11184;52.444;13.578;2023-02-28T06:29:27;12.02;;;10.30;;
22040;SDS011;11184;52.444;13.578;2023-02-28T06:32:11;23.25;;;11.90;;
22040;SDS011;11184;52.444;13.578;2023-02-28T06:34:56;13.93;;;10.45;;
22040;SDS011;11184;52.444;13.578;2023-02-28T06:37:41;12.75;;;9.90;;
22040;SDS011;11184;52.444;13.578;2023-02-28T06:40:27;12.52;;;10.60;;
22040;SDS011;11184;52.444;13.578;2023-02-28T06:43:11;16.05;;;10.68;;
22040;SDS011;11184;52.444;13.578;2023-02-28T06:45:58;17.10;;;10.85;;
22040;SDS011;11184;52.444;13.578;2023-02-28T06:48:43;13.60;;;10.80;;
22040;SDS011;11184;52.444;13.578;2023-02-28T06:51:28;15.20;;;11.20;;
22040;SDS011;11184;52.444;13.578;2023-02-28T06:54:13;13.25;;;10.90;;
22040;SDS011;11184;52.444;13.578;2023-02-28T06:56:57;16.65;;;14.80;;
22040;SDS011;11184;52.444;13.578;2023-02-28T06:59:42;13.65;;;9.40;;
22040;SDS011;11184;52.444;13.578;2023-02-28T07:02:27;11.88;;;10.10;;
22040;SDS011;11184;52.444;13.578;2023-02-28T07:05:12;15.68;;;12.32;;
22040;SDS011;11184;52.444;13.578;2023-02-28T07:07:57;11.77;;;10.25;;
22040;SDS011;11184;52.444;13.578;2023-02-28T07:10:41;12.27;;;10.63;;
22040;SDS011;11184;52.444;13.578;2023-02-28T07:13:26;12.50;;;10.68;;
22040;SDS011;11184;52.444;13.578;2023-02-28T07:16:11;12.63;;;11.20;;
22040;SDS011;11184;52.444;13.578;2023-02-28T07:18:56;11.88;;;10.48;;
22040;SDS011;11184;52.444;13.578;2023-02-28T07:21:40;12.38;;;9.63;;
22040;SDS011;11184;52.444;13.578;2023-02-28T07:24:25;14.32;;;9.75;;
22040;SDS011;11184;52.444;13.578;2023-02-28T07:27:11;12.70;;;10.57;;
22040;SDS011;11184;52.444;13.578;2023-02-28T07:30:09;16.92;;;10.10;;
22040;SDS011;11184;52.444;13.578;2023-02-28T07:32:54;12.27;;;9.65;;
22040;SDS011;11184;52.444;13.578;2023-02-28T07:35:39;12.27;;;10.32;;
22040;SDS011;11184;52.444;13.578;2023-02-28T07:38:24;15.75;;;10.00;;
22040;SDS011;11184;52.444;13.578;2023-02-28T07:41:09;12.73;;;9.18;;
22040;SDS011;11184;52.444;13.578;2023-02-28T07:43:54;12.27;;;9.38;;
22040;SDS011;11184;52.444;13.578;2023-02-28T07:46:43;14.45;;;9.85;;
22040;SDS011;11184;52.444;13.578;2023-02-28T07:49:27;11.68;;;9.02;;
22040;SDS011;11184;52.444;13.578;2023-02-28T07:52:12;12.18;;;9.45;;
22040;SDS011;11184;52.444;13.578;2023-02-28T07:54:56;11.65;;;10.05;;
22040;SDS011;11184;52.444;13.578;2023-02-28T07:57:41;15.52;;;9.60;;
22040;SDS011;11184;52.444;13.578;2023-02-28T08:00:25;9.10;;;8.05;;
22040;SDS011;11184;52.444;13.578;2023-02-28T08:03:11;10.38;;;9.43;;
22040;SDS011;11184;52.444;13.578;2023-02-28T08:05:56;12.20;;;8.90;;
22040;SDS011;11184;52.444;13.578;2023-02-28T08:08:40;11.23;;;8.77;;
22040;SDS011;11184;52.444;13.578;2023-02-28T08:11:25;15.02;;;9.07;;
22040;SDS011;11184;52.444;13.578;2023-02-28T08:14:09;11.10;;;7.63;;
22040;SDS011;11184;52.444;13.578;2023-02-28T08:16:54;11.60;;;8.05;;
22040;SDS011;11184;52.444;13.578;2023-02-28T08:19:39;6.95;;;6.00;;
22040;SDS011;11184;52.444;13.578;2023-02-28T08:22:24;12.30;;;5.97;;
22040;SDS011;11184;52.444;13.578;2023-02-28T08:25:08;10.57;;;6.55;;
22040;SDS011;11184;52.444;13.578;2023-02-28T08:27:53;11.15;;;5.78;;
22040;SDS011;11184;52.444;13.578;2023-02-28T08:30:38;6.47;;;5.88;;
22040;SDS011;11184;52.444;13.578;2023-02-28T08:33:24;7.45;;;6.18;;
22040;SDS011;11184;52.444;13.578;2023-02-28T08:36:09;9.27;;;7.82;;
22040;SDS011;11184;52.444;13.578;2023-02-28T08:38:54;8.30;;;5.63;;
22040;SDS011;11184;52.444;13.578;2023-02-28T08:41:39;7.60;;;5.82;;
22040;SDS011;11184;52.444;13.578;2023-02-28T08:44:25;8.75;;;6.15;;
22040;SDS011;11184;52.444;13.578;2023-02-28T08:47:10;8.95;;;5.78;;
22040;SDS011;11184;52.444;13.578;2023-02-28T08:49:55;10.30;;;7.43;;
22040;SDS011;11184;52.444;13.578;2023-02-28T08:52:41;12.82;;;7.88;;
22040;SDS011;11184;52.444;13.578;2023-02-28T08:55:27;4.90;;;4.47;;
22040;SDS011;11184;52.444;13.578;2023-02-28T08:58:11;6.90;;;5.70;;
22040;SDS011;11184;52.444;13.578;2023-02-28T09:00:56;9.27;;;5.55;;
22040;SDS011;11184;52.444;13.578;2023-02-28T09:03:41;5.68;;;4.43;;
22040;SDS011;11184;52.444;13.578;2023-02-28T09:06:26;4.72;;;4.22;;
22040;SDS011;11184;52.444;13.578;2023-02-28T09:09:11;5.57;;;4.93;;
22040;SDS011;11184;52.444;13.578;2023-02-28T09:11:56;14.07;;;9.77;;
22040;SDS011;11184;52.444;13.578;2023-02-28T09:14:40;8.02;;;6.05;;
22040;SDS011;11184;52.444;13.578;2023-02-28T09:17:25;6.93;;;4.78;;
22040;SDS011;11184;52.444;13.578;2023-02-28T09:20:10;7.72;;;4.68;;
22040;SDS011;11184;52.444;13.578;2023-02-28T09:22:55;5.80;;;4.25;;
22040;SDS011;11184;52.444;13.578;2023-02-28T09:25:46;7.90;;;4.53;;
22040;SDS011;11184;52.444;13.578;2023-02-28T09:28:32;5.88;;;3.65;;
22040;SDS011;11184;52.444;13.578;2023-02-28T09:31:18;6.18;;;3.90;;
22040;SDS011;11184;52.444;13.578;2023-02-28T09:34:04;6.20;;;3.50;;
22040;SDS011;11184;52.444;13.578;2023-02-28T09:36:49;4.00;;;3.45;;
22040;SDS011;11184;52.444;13.578;2023-02-28T09:39:38;11.68;;;4.68;;
22040;SDS011;11184;52.444;13.578;2023-02-28T09:42:32;7.57;;;4.40;;
22040;SDS011;11184;52.444;13.578;2023-02-28T09:45:27;6.03;;;3.72;;
22040;SDS011;11184;52.444;13.578;2023-02-28T09:48:14;4.63;;;3.13;;
22040;SDS011;11184;52.444;13.578;2023-02-28T09:51:02;8.95;;;3.40;;
22040;SDS011;11184;52.444;13.578;2023-02-28T09:53:47;5.72;;;3.00;;
22040;SDS011;11184;52.444;13.578;2023-02-28T09:56:36;9.63;;;4.38;;
22040;SDS011;11184;52.444;13.578;2023-02-28T09:59:25;6.35;;;2.45;;
22040;SDS011;11184;52.444;13.578;2023-02-28T10:05:26;7.55;;;2.72;;
22040;SDS011;11184;52.444;13.578;2023-02-28T10:08:19;3.38;;;2.20;;
22040;SDS011;11184;52.444;13.578;2023-02-28T10:11:09;4.20;;;2.10;;
22040;SDS011;11184;52.444;13.578;2023-02-28T10:14:38;4.13;;;2.92;;
22040;SDS011;11184;52.444;13.578;2023-02-28T10:17:06;6.45;;;2.65;;
22040;SDS011;11184;52.444;13.578;2023-02-28T10:20:01;4.05;;;2.17;;
22040;SDS011;11184;52.444;13.578;2023-02-28T10:26:12;3.35;;;2.65;;
22040;SDS011;11184;52.444;13.578;2023-02-28T10:28:59;3.22;;;2.13;;
22040;SDS011;11184;52.444;13.578;2023-02-28T10:31:44;3.35;;;3.05;;
22040;SDS011;11184;52.444;13.578;2023-02-28T10:34:28;3.45;;;2.75;;
22040;SDS011;11184;52.444;13.578;2023-02-28T10:37:13;3.38;;;1.90;;
22040;SDS011;11184;52.444;13.578;2023-02-28T10:39:57;5.72;;;2.63;;
22040;SDS011;11184;52.444;13.578;2023-02-28T10:42:42;2.85;;;2.22;;
22040;SDS011;11184;52.444;13.578;2023-02-28T10:45:38;3.88;;;3.00;;
22040;SDS011;11184;52.444;13.578;2023-02-28T10:51:15;5.50;;;2.35;;
22040;SDS011;11184;52.444;13.578;2023-02-28T10:54:00;5.50;;;2.70;;
22040;SDS011;11184;52.444;13.578;2023-02-28T10:56:45;2.03;;;1.70;;
22040;SDS011;11184;52.444;13.578;2023-02-28T10:59:30;6.68;;;2.70;;
22040;SDS011;11184;52.444;13.578;2023-02-28T11:02:29;5.47;;;2.70;;
22040;SDS011;11184;52.444;13.578;2023-02-28T11:05:24;2.67;;;2.30;;
22040;SDS011;11184;52.444;13.578;2023-02-28T11:08:16;10.70;;;3.60;;
22040;SDS011;11184;52.444;13.578;2023-02-28T11:11:03;3.35;;;2.58;;
22040;SDS011;11184;52.444;13.578;2023-02-28T11:13:50;5.88;;;2.60;;
22040;SDS011;11184;52.444;13.578;2023-02-28T11:16:37;4.35;;;2.70;;
22040;SDS011;11184;52.444;13.578;2023-02-28T11:19:23;4.45;;;2.55;;
22040;SDS011;11184;52.444;13.578;2023-02-28T11:22:09;3.80;;;3.25;;
22040;SDS011;11184;52.444;13.578;2023-02-28T11:24:55;3.00;;;2.40;;
22040;SDS011;11184;52.444;13.578;2023-02-28T11:27:43;8.88;;;3.40;;
22040;SDS011;11184;52.444;13.578;2023-02-28T11:30:32;5.38;;;3.00;;
22040;SDS011;11184;52.444;13.578;2023-02-28T11:33:28;3.03;;;2.22;;
22040;SDS011;11184;52.444;13.578;2023-02-28T11:36:21;4.10;;;2.72;;
22040;SDS011;11184;52.444;13.578;2023-02-28T11:39:09;4.20;;;2.78;;
22040;SDS011;11184;52.444;13.578;2023-02-28T11:42:02;6.75;;;4.00;;
22040;SDS011;11184;52.444;13.578;2023-02-28T11:47:42;3.40;;;2.60;;
22040;SDS011;11184;52.444;13.578;2023-02-28T11:53:50;5.68;;;3.80;;
22040;SDS011;11184;52.444;13.578;2023-02-28T11:56:41;5.13;;;3.13;;
22040;SDS011;11184;52.444;13.578;2023-02-28T11:59:42;10.20;;;6.90;;
22040;SDS011;11184;52.444;13.578;2023-02-28T12:02:44;7.88;;;3.00;;
22040;SDS011;11184;52.444;13.578;2023-02-28T12:05:46;5.00;;;3.22;;
22040;SDS011;11184;52.444;13.578;2023-02-28T12:16:59;3.80;;;2.47;;
22040;SDS011;11184;52.444;13.578;2023-02-28T12:28:28;3.35;;;2.25;;
22040;SDS011;11184;52.444;13.578;2023-02-28T12:31:19;4.30;;;2.03;;
22040;SDS011;11184;52.444;13.578;2023-02-28T12:34:06;3.38;;;2.88;;
22040;SDS011;11184;52.444;13.578;2023-02-28T12:36:54;5.63;;;2.97;;
22040;SDS011;11184;52.444;13.578;2023-02-28T12:39:44;4.28;;;2.92;;
22040;SDS011;11184;52.444;13.578;2023-02-28T12:42:30;6.53;;;2.72;;
22040;SDS011;11184;52.444;13.578;2023-02-28T12:45:18;4.82;;;2.92;;
22040;SDS011;11184;52.444;13.578;2023-02-28T12:48:04;3.42;;;3.08;;
22040;SDS011;11184;52.444;13.578;2023-02-28T12:50:50;3.45;;;3.00;;
22040;SDS011;11184;52.444;13.578;2023-02-28T12:56:32;2.65;;;2.15;;
22040;SDS011;11184;52.444;13.578;2023-02-28T12:59:21;5.18;;;2.92;;
22040;SDS011;11184;52.444;13.578;2023-02-28T13:02:24;6.72;;;3.25;;
22040;SDS011;11184;52.444;13.578;2023-02-28T13:05:32;3.53;;;2.28;;
22040;SDS011;11184;52.444;13.578;2023-02-28T13:11:27;6.20;;;2.53;;
22040;SDS011;11184;52.444;13.578;2023-02-28T13:17:20;5.93;;;2.72;;
22040;SDS011;11184;52.444;13.578;2023-02-28T13:20:13;8.77;;;5.03;;
22040;SDS011;11184;52.444;13.578;2023-02-28T13:22:59;3.55;;;2.13;;
22040;SDS011;11184;52.444;13.578;2023-02-28T13:31:50;6.65;;;3.53;;
22040;SDS011;11184;52.444;13.578;2023-02-28T13:42:53;3.50;;;2.40;;
22040;SDS011;11184;52.444;13.578;2023-02-28T13:45:38;3.65;;;3.13;;
22040;SDS011;11184;52.444;13.578;2023-02-28T13:48:24;7.60;;;3.83;;
22040;SDS011;11184;52.444;13.578;2023-02-28T13:51:28;3.40;;;3.10;;
22040;SDS011;11184;52.444;13.578;2023-02-28T13:57:22;8.73;;;3.17;;
22040;SDS011;11184;52.444;13.578;2023-02-28T14:00:22;10.38;;;3.88;;
22040;SDS011;11184;52.444;13.578;2023-02-28T14:03:14;8.63;;;4.47;;
22040;SDS011;11184;52.444;13.578;2023-02-28T14:18:21;6.75;;;4.45;;
22040;SDS011;11184;52.444;13.578;2023-02-28T14:21:11;10.30;;;4.05;;
22040;SDS011;11184;52.444;13.578;2023-02-28T14:24:03;4.28;;;2.88;;
22040;SDS011;11184;52.444;13.578;2023-02-28T14:30:13;7.30;;;3.83;;
22040;SDS011;11184;52.444;13.578;2023-02-28T14:33:05;5.03;;;4.38;;
22040;SDS011;11184;52.444;13.578;2023-02-28T14:36:03;5.85;;;3.75;;
22040;SDS011;11184;52.444;13.578;2023-02-28T14:38:50;3.45;;;2.55;;
22040;SDS011;11184;52.444;13.578;2023-02-28T14:41:38;4.60;;;3.47;;
22040;SDS011;11184;52.444;13.578;2023-02-28T14:44:24;5.35;;;3.95;;
22040;SDS011;11184;52.444;13.578;2023-02-28T14:47:13;3.30;;;2.97;;
22040;SDS011;11184;52.444;13.578;2023-02-28T14:49:59;4.32;;;3.15;;
22040;SDS011;11184;52.444;13.578;2023-02-28T14:52:45;7.13;;;3.95;;
22040;SDS011;11184;52.444;13.578;2023-02-28T14:55:30;5.25;;;3.17;;
22040;SDS011;11184;52.444;13.578;2023-02-28T14:58:21;6.03;;;3.42;;
22040;SDS011;11184;52.444;13.578;2023-02-28T15:01:09;3.97;;;2.65;;
22040;SDS011;11184;52.444;13.578;2023-02-28T15:03:58;3.47;;;3.17;;
22040;SDS011;11184;52.444;13.578;2023-02-28T15:06:44;5.53;;;3.65;;
22040;SDS011;11184;52.444;13.578;2023-02-28T15:09:29;3.42;;;2.83;;
22040;SDS011;11184;52.444;13.578;2023-02-28T15:12:14;5.60;;;3.38;;
22040;SDS011;11184;52.444;13.578;2023-02-28T15:14:59;4.07;;;3.20;;
22040;SDS011;11184;52.444;13.578;2023-02-28T15:17:44;3.50;;;2.58;;
22040;SDS011;11184;52.444;13.578;2023-02-28T15:20:30;5.03;;;3.15;;
22040;SDS011;11184;52.444;13.578;2023-02-28T15:23:16;4.10;;;3.10;;
22040;SDS011;11184;52.444;13.578;2023-02-28T15:26:01;4.40;;;3.22;;
22040;SDS011;11184;52.444;13.578;2023-02-28T15:28:48;3.80;;;3.13;;
22040;SDS011;11184;52.444;13.578;2023-02-28T15:31:34;5.88;;;3.58;;
22040;SDS011;11184;52.444;13.578;2023-02-28T15:34:21;5.20;;;3.83;;
22040;SDS011;11184;52.444;13.578;2023-02-28T15:43:13;4.50;;;3.40;;
22040;SDS011;11184;52.444;13.578;2023-02-28T15:46:02;5.78;;;4.18;;
22040;SDS011;11184;52.444;13.578;2023-02-28T15:48:51;5.10;;;3.65;;
22040;SDS011;11184;52.444;13.578;2023-02-28T15:51:36;5.22;;;3.85;;
22040;SDS011;11184;52.444;13.578;2023-02-28T15:54:23;5.05;;;3.55;;
22040;SDS011;11184;52.444;13.578;2023-02-28T15:57:11;7.53;;;3.97;;
22040;SDS011;11184;52.444;13.578;2023-02-28T16:00:01;5.57;;;4.25;;
22040;SDS011;11184;52.444;13.578;2023-02-28T16:02:47;5.65;;;4.50;;
22040;SDS011;11184;52.444;13.578;2023-02-28T16:05:32;4.25;;;3.58;;
22040;SDS011;11184;52.444;13.578;2023-02-28T16:08:18;4.55;;;3.58;;
22040;SDS011;11184;52.444;13.578;2023-02-28T16:11:02;9.07;;;5.03;;
22040;SDS011;11184;52.444;13.578;2023-02-28T16:13:47;6.85;;;4.32;;
22040;SDS011;11184;52.444;13.578;2023-02-28T16:16:31;9.65;;;5.53;;
22040;SDS011;11184;52.444;13.578;2023-02-28T16:19:18;8.77;;;5.05;;
22040;SDS011;11184;52.444;13.578;2023-02-28T16:22:03;8.80;;;5.18;;
22040;SDS011;11184;52.444;13.578;2023-02-28T16:24:47;6.40;;;4.25;;
22040;SDS011;11184;52.444;13.578;2023-02-28T16:27:33;11.93;;;4.65;;
22040;SDS011;11184;52.444;13.578;2023-02-28T16:30:20;7.72;;;5.50;;
22040;SDS011;11184;52.444;13.578;2023-02-28T16:33:07;8.20;;;5.03;;
22040;SDS011;11184;52.444;13.578;2023-02-28T16:35:52;8.13;;;5.15;;
22040;SDS011;11184;52.444;13.578;2023-02-28T16:38:36;9.75;;;4.88;;
22040;SDS011;11184;52.444;13.578;2023-02-28T16:41:22;7.75;;;6.95;;
22040;SDS011;11184;52.444;13.578;2023-02-28T16:44:10;13.77;;;7.00;;
22040;SDS011;11184;52.444;13.578;2023-02-28T16:46:56;14.82;;;7.38;;
22040;SDS011;11184;52.444;13.578;2023-02-28T16:49:40;9.07;;;5.68;;
22040;SDS011;11184;52.444;13.578;2023-02-28T16:52:26;8.85;;;5.30;;
22040;SDS011;11184;52.444;13.578;2023-02-28T16:55:11;17.20;;;7.93;;
22040;SDS011;11184;52.444;13.578;2023-02-28T16:57:56;12.63;;;8.60;;
22040;SDS011;11184;52.444;13.578;2023-02-28T17:00:41;12.38;;;6.72;;
22040;SDS011;11184;52.444;13.578;2023-02-28T17:03:27;10.43;;;6.90;;
22040;SDS011;11184;52.444;13.578;2023-02-28T17:06:20;10.38;;;7.97;;
22040;SDS011;11184;52.444;13.578;2023-02-28T17:09:08;25.35;;;10.93;;
22040;SDS011;11184;52.444;13.578;2023-02-28T17:11:59;17.63;;;12.25;;
22040;SDS011;11184;52.444;13.578;2023-02-28T17:14:43;13.38;;;7.75;;
22040;SDS011;11184;52.444;13.578;2023-02-28T17:17:28;22.77;;;12.27;;
22040;SDS011;11184;52.444;13.578;2023-02-28T17:20:18;18.50;;;11.63;;
22040;SDS011;11184;52.444;13.578;2023-02-28T17:23:06;18.15;;;10.27;;
22040;SDS011;11184;52.444;13.578;2023-02-28T17:25:51;13.88;;;8.75;;
22040;SDS011;11184;52.444;13.578;2023-02-28T17:28:38;12.18;;;8.10;;
22040;SDS011;11184;52.444;13.578;2023-02-28T17:31:24;13.10;;;7.63;;
22040;SDS011;11184;52.444;13.578;2023-02-28T17:34:09;20.17;;;10.15;;
22040;SDS011;11184;52.444;13.578;2023-02-28T17:36:53;21.13;;;9.32;;
22040;SDS011;11184;52.444;13.578;2023-02-28T17:39:38;13.73;;;9.38;;
22040;SDS011;11184;52.444;13.578;2023-02-28T17:42:23;23.80;;;9.75;;
22040;SDS011;11184;52.444;13.578;2023-02-28T17:45:07;17.02;;;8.43;;
22040;SDS011;11184;52.444;13.578;2023-02-28T17:47:52;17.67;;;9.77;;
22040;SDS011;11184;52.444;13.578;2023-02-28T17:50:37;13.77;;;9.07;;
22040;SDS011;11184;52.444;13.578;2023-02-28T17:53:22;11.93;;;8.43;;
22040;SDS011;11184;52.444;13.578;2023-02-28T17:56:20;14.52;;;9.70;;
22040;SDS011;11184;52.444;13.578;2023-02-28T17:59:05;20.17;;;9.88;;
22040;SDS011;11184;52.444;13.578;2023-02-28T18:01:49;18.70;;;9.50;;